Latest Weather Observations for Mount William

IDV60801

Issued at 6:05 pm EST Wednesday 1 October 2014 (issued every 30 minutes, with the page automatically refreshed every 10 minutes)

About weather observations | Map of weather stations | Latest weather observations for VIC | Other Formats
Station Details ID: 079103 Name: MOUNT WILLIAM Lat: -37.30 Lon: 142.60 Height: 1150.0 m
Data from the previous 72 hours. | See also: Recent months at Mount William
Date/Time
EST
Temp
°C
App
Temp
°C
Dew
Point
Rel
Hum
%
Delta-T
°C
Wind Press
QNH
hPa
Press
MSL
hPa
Rain
since 9 am
mm
Dir
 
Spd
km/h
Gust
km/h
Spd
kts
Gust
kts
01/06:00pm 4.0 -1.5 2.0 87 0.9 WSW 20 30 11 16 - - 0.0
01/05:30pm 4.3 -0.1 2.5 88 0.8 SW 15 28 8 15 - - 0.0
01/05:00pm 4.7 0.2 2.4 85 1.0 WSW 15 26 8 14 - - 0.0
01/04:30pm 4.8 0.3 2.2 83 1.1 WSW 15 30 8 16 - - 0.0
01/04:00pm 5.0 1.3 2.4 83 1.1 WSW 11 22 6 12 - - 0.0
01/03:30pm 6.3 2.3 2.6 77 1.6 W 13 24 7 13 - - 0.0
01/03:00pm 5.3 1.2 2.1 80 1.4 W 13 26 7 14 - - 0.0
01/02:30pm 5.8 0.8 1.2 72 2.0 W 17 28 9 15 - - 0.0
01/02:00pm 6.0 2.5 1.5 73 1.9 WNW 9 17 5 9 - - 0.0
01/01:30pm 4.6 0.8 1.5 80 1.3 W 11 24 6 13 - - 0.0
01/01:00pm 4.9 0.6 1.0 76 1.6 W 13 28 7 15 - - 0.0
01/12:30pm 4.0 -1.0 1.2 82 1.2 WSW 17 30 9 16 - - 0.0
01/12:00pm 3.7 -1.3 1.4 85 1.0 W 17 30 9 16 - - 0.0
01/11:30am 2.9 -2.1 1.3 89 0.7 W 17 26 9 14 - - 0.0
01/11:00am 2.2 -3.1 1.6 96 0.2 WSW 19 37 10 20 - - 0.0
01/10:30am 1.9 -2.7 1.8 99 0.0 WSW 15 33 8 18 - - 0.0
01/10:00am 1.9 -3.4 1.8 99 0.0 SW 19 35 10 19 - - 0.0
01/09:30am 1.2 -3.8 1.1 99 0.0 WSW 17 30 9 16 - - 0.0
01/09:00am 0.9 -3.4 0.8 99 0.0 W 13 28 7 15 - - 7.4
01/08:30am 0.5 -5.2 0.4 99 0.0 SW 20 41 11 22 - - 7.4
01/08:00am 0.3 -6.2 0.2 99 0.0 WSW 24 39 13 21 - - 7.4
01/07:30am 0.0 -6.2 -0.1 99 0.0 SW 22 41 12 22 - - 7.2
01/07:00am -0.1 -7.1 -0.2 99 0.0 SW 26 37 14 20 - - 6.6
01/06:30am -0.1 -7.8 -0.2 99 0.0 SW 30 44 16 24 - - 6.6
01/06:14am -0.1 -7.4 -0.2 99 0.0 SW 28 46 15 25 - - 6.6
01/06:00am -0.2 -7.2 -0.3 99 0.0 SW 26 44 14 24 - - 6.6
01/05:30am -0.4 -8.2 -0.5 99 0.0 SW 30 50 16 27 - - 6.6
01/05:10am -0.7 -9.1 -0.8 99 0.0 SW 33 52 18 28 - - 6.6
01/05:00am -0.9 -9.7 -1.0 99 0.0 SW 35 54 19 29 - - 6.6
01/04:30am -0.7 -9.8 -0.8 99 0.0 SW 37 57 20 31 - - 6.6
01/04:00am -0.7 -9.1 -0.8 99 0.0 SW 33 57 18 31 - - 6.6
01/03:40am -0.8 -9.9 -0.9 99 0.0 SW 37 59 20 32 - - 6.6
01/03:30am -0.7 -9.8 -0.8 99 0.0 SW 37 52 20 28 - - 6.6
01/03:00am -0.6 -11.0 -0.7 99 0.0 SW 44 65 24 35 - - 6.6
01/02:30am -0.5 -10.9 -0.6 99 0.0 SW 44 70 24 38 - - 6.6
01/02:00am -0.3 -9.4 -0.4 99 0.0 WSW 37 59 20 32 - - 6.6
01/01:30am -0.3 -10.5 -0.4 99 0.0 WSW 43 65 23 35 - - 6.6
01/01:00am -0.4 -9.9 -0.5 99 0.0 WSW 39 59 21 32 - - 6.6
01/12:30am -0.3 -9.8 -0.4 99 0.0 W 39 61 21 33 - - 6.6
01/12:00am -0.2 -9.3 -0.3 99 0.0 W 37 69 20 37 - - 6.6
 
Date/Time
EST
Temp
°C
App
Temp
°C
Dew
Point
Rel
Hum
%
Delta-T
°C
Wind Press
QNH
hPa
Press
MSL
hPa
Rain
since 9 am
mm
Dir
 
Spd
km/h
Gust
km/h
Spd
kts
Gust
kts
30/11:30pm -0.3 -8.6 -0.4 99 0.0 WSW 33 65 18 35 - - 6.6
30/11:00pm -0.1 -8.4 -0.2 99 0.0 WSW 33 52 18 28 - - 6.6
30/10:30pm 0.2 -8.0 0.1 99 0.0 WSW 33 59 18 32 - - 6.6
30/10:00pm -0.1 -8.2 -0.2 99 0.0 WSW 32 56 17 30 - - 6.6
30/09:30pm -0.2 -8.3 -0.3 99 0.0 WSW 32 65 17 35 - - 6.6
30/09:04pm -0.4 -7.8 -0.5 99 0.0 WSW 28 59 15 32 - - 6.6
30/09:00pm -0.4 -7.4 -0.5 99 0.0 WSW 26 50 14 27 - - 6.6
30/08:30pm -0.5 -6.2 -0.6 99 0.0 WSW 19 37 10 20 - - 6.6
30/08:00pm -0.8 -9.6 -0.9 99 0.0 WSW 35 65 19 35 - - 6.6
30/07:32pm 1.4 -6.4 -0.8 85 0.9 W 30 50 16 27 - - 6.6
30/07:30pm 1.5 -5.1 -0.6 86 0.8 WSW 24 48 13 26 - - 6.6
30/07:00pm 2.0 -5.7 -0.2 85 0.9 WSW 30 61 16 33 - - 6.6
30/06:35pm 2.3 -4.9 0.5 88 0.7 WSW 28 54 15 29 - - 6.6
30/06:30pm 2.4 -4.1 0.1 85 0.9 WSW 24 54 13 29 - - 6.6
30/06:02pm 2.7 -4.6 0.3 84 1.0 W 28 63 15 34 - - 6.6
30/06:00pm 2.8 -4.0 0.5 85 0.9 WSW 26 63 14 34 - - 6.6
30/05:42pm 3.1 -4.2 0.3 82 1.1 WSW 28 56 15 30 - - 6.6
30/05:30pm 3.4 -2.6 0.8 83 1.1 WSW 22 46 12 25 - - 6.6
30/05:01pm 3.5 -3.7 0.9 83 1.1 WSW 28 59 15 32 - - 6.6
30/05:00pm 3.3 -3.5 0.7 83 1.1 WSW 26 59 14 32 - - 6.6
30/04:32pm 3.6 -3.2 2.9 95 0.3 W 28 54 15 29 - - 6.6
30/04:30pm 3.5 -3.0 2.9 96 0.3 W 26 54 14 29 - - 6.6
30/04:15pm 3.5 -4.2 3.4 99 0.0 WSW 33 56 18 30 - - 6.6
30/04:00pm 3.4 -2.6 3.3 99 0.0 W 24 59 13 32 - - 6.6
30/03:33pm 3.3 -3.9 3.2 99 0.0 WSW 30 65 16 35 - - 6.6
30/03:30pm 3.2 -3.2 3.1 99 0.0 WSW 26 52 14 28 - - 6.6
30/03:00pm 3.4 -6.2 3.3 99 0.0 W 43 80 23 43 - - 6.4
30/02:30pm 3.7 -5.9 3.6 99 0.0 WSW 43 78 23 42 - - 6.0
30/02:00pm 6.3 -2.7 6.2 99 0.0 W 43 80 23 43 - - 3.0
30/01:30pm 6.9 -2.2 6.6 98 0.1 W 44 82 24 44 - - 0.8
30/01:00pm 9.7 -1.3 5.1 73 2.2 W 52 85 28 46 - - 0.0
30/12:30pm 9.1 -1.7 4.3 72 2.3 W 50 74 27 40 - - 0.0
30/12:00pm 10.2 -0.2 4.4 67 2.8 W 48 69 26 37 - - 0.0
30/11:30am 10.5 -1.3 4.6 67 2.8 W 56 80 30 43 - - 0.0
30/11:00am 9.5 -1.4 5.3 75 2.0 WNW 52 80 28 43 - - 0.0
30/10:30am 10.4 1.4 6.2 75 2.1 WNW 43 65 23 35 - - 0.0
30/10:00am 9.1 -0.3 5.3 77 1.8 W 44 65 24 35 - - 0.0
30/09:31am 8.7 0.2 5.1 78 1.7 WNW 39 57 21 31 - - 0.0
30/09:30am 8.8 -0.1 5.2 78 1.7 WNW 41 57 22 31 - - 0.0
30/09:00am 8.5 0.9 5.6 82 1.4 WNW 35 57 19 31 - - 0.0
30/08:58am 8.5 0.9 5.6 82 1.4 WNW 35 57 19 31 - - 0.0
30/08:30am 7.6 0.3 5.4 86 1.1 WNW 33 46 18 25 - - 0.0
30/08:16am 7.2 -0.1 5.3 88 0.9 W 33 54 18 29 - - 0.0
30/08:00am 6.9 -0.4 5.5 91 0.7 W 33 48 18 26 - - 0.0
30/07:35am 6.3 -1.2 6.2 99 0.0 W 35 56 19 30 - - 0.0
30/07:30am 6.2 -1.3 6.1 99 0.0 W 35 48 19 26 - - 0.0
30/07:11am 5.9 -1.7 5.8 99 0.0 W 35 61 19 33 - - 0.0
30/07:00am 5.7 -1.4 5.6 99 0.0 W 32 50 17 27 - - 0.0
30/06:38am 5.6 -1.5 5.5 99 0.0 W 32 52 17 28 - - 0.0
30/06:30am 5.5 -1.8 5.4 99 0.0 W 33 48 18 26 - - 0.0
30/06:10am 5.5 -1.8 5.4 99 0.0 W 33 56 18 30 - - 0.0
30/06:00am 5.5 -1.6 5.4 99 0.0 W 32 50 17 27 - - 0.0
30/05:40am 5.4 -1.9 5.3 99 0.0 W 33 52 18 28 - - 0.0
30/05:30am 5.4 -1.7 5.3 99 0.0 W 32 48 17 26 - - 0.0
30/05:15am 5.3 -1.9 5.2 99 0.0 W 32 54 17 29 - - 0.0
30/05:00am 5.3 -1.5 5.2 99 0.0 W 30 43 16 23 - - 0.0
30/04:30am 5.2 -1.2 5.1 99 0.0 W 28 44 15 24 - - 0.0
30/04:00am 5.0 -1.1 4.9 99 0.0 W 26 41 14 22 - - 0.0
30/03:30am 4.8 -1.7 4.7 99 0.0 W 28 41 15 22 - - 0.0
30/03:05am 4.8 -1.7 4.7 99 0.0 W 28 50 15 27 - - 0.0
30/03:00am 4.8 -1.7 4.7 99 0.0 W 28 43 15 23 - - 0.0
30/02:30am 5.0 -1.5 4.9 99 0.0 W 28 44 15 24 - - 0.0
30/02:00am 5.3 -3.2 5.2 99 0.0 W 39 61 21 33 - - 0.0
30/01:50am 5.4 -3.5 5.3 99 0.0 W 41 61 22 33 - - 0.0
30/01:30am 5.6 -3.2 5.5 99 0.0 W 41 56 22 30 - - 0.0
30/01:00am 5.9 -2.8 5.8 99 0.0 W 41 59 22 32 - - 0.0
30/12:56am 5.9 -2.8 5.8 99 0.0 W 41 59 22 32 - - 0.0
30/12:30am 6.0 -2.3 5.9 99 0.0 W 39 54 21 29 - - 0.0
30/12:00am 6.5 -1.4 6.4 99 0.0 W 37 52 20 28 - - 0.0
 
Date/Time
EST
Temp
°C
App
Temp
°C
Dew
Point
Rel
Hum
%
Delta-T
°C
Wind Press
QNH
hPa
Press
MSL
hPa
Rain
since 9 am
mm
Dir
 
Spd
km/h
Gust
km/h
Spd
kts
Gust
kts
29/11:30pm 6.8 -1.5 6.2 96 0.3 W 39 54 21 29 - - 0.0
29/11:00pm 6.9 -0.9 6.8 99 0.0 W 37 59 20 32 - - 0.0
29/10:58pm 6.6 -1.2 6.5 99 0.0 W 37 59 20 32 - - 0.0
29/10:30pm 6.6 -1.3 6.3 98 0.1 W 37 48 20 26 - - 0.0
29/10:00pm 7.1 -0.4 6.2 94 0.4 W 35 44 19 24 - - 0.0
29/09:30pm 8.2 0.3 6.2 87 1.0 W 37 46 20 25 - - 0.0
29/09:00pm 8.4 0.5 6.2 86 1.1 W 37 48 20 26 - - 0.0
29/08:30pm 8.5 1.0 6.1 85 1.2 W 35 44 19 24 - - 0.0
29/08:00pm 9.0 1.8 5.9 81 1.5 W 33 39 18 21 - - 0.0
29/07:30pm 9.6 1.6 5.6 76 2.0 W 37 50 20 27 - - 0.0
29/07:00pm 9.7 2.5 5.7 76 2.0 W 33 48 18 26 - - 0.0
29/06:30pm 9.9 2.8 5.7 75 2.1 W 32 48 17 26 - - 0.0
29/06:00pm 11.1 4.9 6.0 71 2.5 WNW 28 43 15 23 - - 0.0
29/05:30pm 12.0 6.1 5.9 66 3.1 WNW 26 39 14 21 - - 0.0
29/05:00pm 12.2 5.0 4.9 61 3.6 WNW 32 44 17 24 - - 0.0
29/04:30pm 12.3 5.9 5.0 61 3.6 W 28 39 15 21 - - 0.0
29/04:00pm 12.6 6.3 5.5 62 3.5 W 28 35 15 19 - - 0.0
29/03:30pm 12.4 6.0 5.1 61 3.6 W 28 39 15 21 - - 0.0
29/03:00pm 11.8 5.4 5.2 64 3.2 W 28 41 15 22 - - 0.0
29/02:30pm 11.9 5.2 5.8 66 3.0 W 30 43 16 23 - - 0.0
29/02:00pm 11.7 5.7 5.3 65 3.2 W 26 41 14 22 - - 0.0
29/01:30pm 10.9 4.1 5.2 68 2.8 W 30 41 16 22 - - 0.0
29/01:00pm 11.3 6.1 5.6 68 2.8 WNW 22 35 12 19 - - 0.0
29/12:30pm 12.0 7.9 6.1 67 3.0 WNW 17 26 9 14 - - 0.0
29/12:00pm 10.3 6.7 5.1 70 2.5 WNW 13 19 7 10 - - 0.0
29/11:30am 9.2 5.6 4.8 74 2.1 W 13 22 7 12 - - 0.0
29/11:00am 9.0 6.5 5.0 76 1.9 W 7 15 4 8 - - 0.0
29/10:30am 8.3 5.9 4.5 77 1.8 WSW 6 7 3 4 - - 0.0
29/10:00am 7.3 4.3 4.3 81 1.4 WSW 9 17 5 9 - - 0.0
29/09:30am 7.6 5.3 4.7 82 1.4 W 6 13 3 7 - - 0.0
29/09:00am 6.6 4.0 4.1 84 1.2 WNW 7 13 4 7 - - 0.0
29/08:30am 5.9 3.4 3.6 85 1.0 WNW 6 17 3 9 - - -
29/08:00am 4.9 -1.5 3.2 89 0.8 W 26 39 14 21 - - -
29/07:30am 4.7 -2.9 3.0 89 0.8 W 32 43 17 23 - - -
29/07:11am 4.7 -3.4 3.0 89 0.8 WSW 35 56 19 30 - - -
29/07:00am 4.5 -5.2 2.8 89 0.7 WSW 43 56 23 30 - - -
29/06:30am 4.3 -5.3 4.2 99 0.0 WSW 44 54 24 29 - - -
29/06:00am 4.8 -3.0 4.7 99 0.0 WSW 35 50 19 27 - - -
29/05:30am 4.9 -3.3 4.8 99 0.0 WSW 37 63 20 34 - - -
29/05:00am 5.0 -2.4 4.9 99 0.0 WSW 33 56 18 30 - - -
29/04:55am 5.0 -1.8 4.9 99 0.0 WSW 30 52 16 28 - - -
29/04:30am 5.1 -0.6 5.0 99 0.0 W 24 39 13 21 - - -
29/04:00am 5.2 1.2 5.1 99 0.0 WSW 15 33 8 18 - - -
29/03:30am 5.3 -0.4 5.0 98 0.1 WSW 24 48 13 26 - - -
29/03:00am 5.3 -4.0 5.2 99 0.0 WSW 43 72 23 39 - - -
29/02:30am 5.4 -5.2 5.3 99 0.0 WSW 50 91 27 49 - - -
29/02:13am 5.3 -7.4 5.0 98 0.1 W 61 82 33 44 - - -
29/02:12am 5.3 -8.2 5.0 98 0.1 WSW 65 78 35 42 - - -
29/02:00am 5.2 -4.1 4.8 97 0.2 WSW 43 74 23 40 - - -
29/01:30am 5.3 -6.2 4.4 94 0.4 W 54 83 29 45 - - 0.0
29/01:00am 5.2 -6.7 4.5 95 0.3 WSW 56 85 30 46 - - 0.0
29/12:30am 5.1 -4.5 3.4 89 0.8 WSW 43 78 23 42 - - 0.0
29/12:00am 5.4 -4.5 2.8 83 1.1 W 44 72 24 39 - - 0.0
 
Date/Time
EST
Temp
°C
App
Temp
°C
Dew
Point
Rel
Hum
%
Delta-T
°C
Wind Press
QNH
hPa
Press
MSL
hPa
Rain
since 9 am
mm
Dir
 
Spd
km/h
Gust
km/h
Spd
kts
Gust
kts
28/11:30pm 5.7 -6.6 2.2 78 1.5 WSW 56 89 30 48 - - 0.0
28/11:00pm 6.1 -6.3 1.6 73 1.9 W 56 82 30 44 - - 0.0
28/10:30pm 6.8 -5.0 0.5 64 2.7 WSW 52 89 28 48 - - 0.0
28/10:00pm 8.3 -3.4 0.8 59 3.2 W 52 78 28 42 - - 0.0
28/09:30pm 9.0 -0.7 3.8 70 2.4 W 44 74 24 40 - - 0.0
28/09:00pm 10.0 0.8 6.2 77 1.9 W 44 63 24 34 - - 0.0
28/08:33pm 11.2 2.1 6.1 71 2.5 W 43 63 23 34 - - 0.0
28/08:30pm 11.3 2.1 6.2 71 2.6 W 44 63 24 34 - - 0.0
28/08:09pm 11.5 3.2 6.0 69 2.7 W 39 57 21 31 - - 0.0
28/08:00pm 12.0 2.9 5.9 66 3.1 W 43 57 23 31 - - 0.0
28/07:31pm 13.1 4.9 5.0 58 4.0 W 37 56 20 30 - - 0.0
28/07:30pm 13.1 5.3 4.8 57 4.1 W 35 52 19 28 - - 0.0
28/07:12pm 14.3 5.9 3.5 48 5.2 W 37 57 20 31 - - 0.0
28/07:00pm 14.8 7.0 3.0 45 5.7 W 33 48 18 26 - - 0.0
28/06:30pm 16.0 7.0 2.4 40 6.5 W 39 59 21 32 - - 0.0

Other Formats:

Comma delimited format used in spreadsheet applications
http://www.bom.gov.au/fwo/IDV60801/IDV60801.94833.axf

JavaScript Object Notation format (JSON) in row-major order
http://www.bom.gov.au/fwo/IDV60801/IDV60801.94833.json